Time;durP1;ratioP1;P1;durP2;ratioP2;P2;SDS_P1;SDS_P2;PMS_P1;PMS_P2;Temp;Humidity;BMP_temperature;BMP_pressure;BME280_temperature;BME280_humidity;BME280_pressure;Samples;Min_cycle;Max_cycle;Signal;HPM_P1;HPM_P2
2023/06/07 00:01:17;;;;;;;6.80;4.90;;;;;;;16.19;80.61;99470.29;101149;294;22882;-35
2023/06/07 00:03:44;;;;;;;9.40;4.80;;;;;;;16.18;79.78;99467.92;101035;294;24284;-35
2023/06/07 00:06:12;;;;;;;7.30;5.10;;;;;;;16.14;79.49;99468.30;101131;294;26918;-30
2023/06/07 00:08:38;;;;;;;6.20;4.20;;;;;;;16.16;79.93;99472.00;101135;294;25308;-34
2023/06/07 00:11:03;;;;;;;3.70;3.10;;;;;;;16.15;80.93;99469.56;101104;294;25265;-36
2023/06/07 00:13:29;;;;;;;5.50;4.40;;;;;;;16.13;80.21;99467.71;101182;283;25306;-37
2023/06/07 00:15:55;;;;;;;8.50;5.70;;;;;;;16.10;79.05;99469.08;101080;294;27169;-36
2023/06/07 00:18:21;;;;;;;7.20;5.80;;;;;;;16.02;79.33;99465.13;101197;294;26959;-34
2023/06/07 00:20:49;;;;;;;9.20;6.50;;;;;;;16.03;80.23;99463.14;101162;294;25742;-36
2023/06/07 00:23:15;;;;;;;12.50;6.50;;;;;;;15.97;80.58;99461.83;101149;294;24067;-31
2023/06/07 00:25:41;;;;;;;8.00;6.20;;;;;;;15.97;81.36;99458.70;101200;295;25594;-34
2023/06/07 00:28:07;;;;;;;6.60;5.80;;;;;;;15.99;81.31;99457.50;101133;294;22579;-30
2023/06/07 00:30:32;;;;;;;8.90;6.60;;;;;;;16.01;81.67;99458.63;101221;294;25590;-37
2023/06/07 01:13:02;;;;;;;5.10;4.60;;;;;;;16.02;84.88;99453.02;101319;293;557762;-31
2023/06/07 01:15:28;;;;;;;5.40;3.60;;;;;;;16.24;84.17;99448.66;101055;292;561885;-32
2023/06/07 01:17:53;;;;;;;6.80;4.10;;;;;;;16.30;84.49;99447.80;101452;287;22883;-34
2023/06/07 01:20:26;;;;;;;5.70;4.70;;;;;;;16.42;84.07;99447.25;101426;294;22879;-32
2023/06/07 01:22:56;;;;;;;8.10;5.60;;;;;;;-15.77;86.95;103315.14;101513;293;25816;-31
2023/06/07 01:25:22;;;;;;;10.80;9.10;;;;;;;-128.00;-1.00;-1.00;98138;293;1004274;-34
2023/06/07 01:27:52;;;;;;;12.90;7.30;;;;;;;-128.00;-1.00;-1.00;98035;293;1003630;-34
2023/06/07 01:30:18;;;;;;;49.10;30.50;;;;;;;-128.00;-1.00;-1.00;98168;294;1004726;-29
2023/06/07 01:32:43;;;;;;;18.90;10.70;;;;;;;-128.00;-1.00;-1.00;98065;293;1003671;-36
2023/06/07 01:35:09;;;;;;;12.70;9.00;;;;;;;-128.00;-1.00;-1.00;98041;294;1002651;-34
2023/06/07 01:37:35;;;;;;;11.90;8.30;;;;;;;-128.00;-1.00;-1.00;97897;294;1002922;-30
2023/06/07 01:40:01;;;;;;;12.90;9.30;;;;;;;-128.00;-1.00;-1.00;97962;294;1002913;-37
2023/06/07 01:42:27;;;;;;;60.30;44.90;;;;;;;-128.00;-1.00;-1.00;97991;293;1003299;-34
2023/06/07 01:44:52;;;;;;;42.10;35.60;;;;;;;-128.00;-1.00;-1.00;97941;294;1004103;-33
2023/06/07 01:47:18;;;;;;;36.50;25.10;;;;;;;-128.00;-1.00;-1.00;97988;293;1003485;-34
2023/06/07 01:49:44;;;;;;;21.00;17.60;;;;;;;-128.00;-1.00;-1.00;98004;293;1004769;-34
2023/06/07 01:52:10;;;;;;;68.90;57.10;;;;;;;-128.00;-1.00;-1.00;97817;294;1003579;-31
2023/06/07 01:54:36;;;;;;;9.30;5.40;;;;;;;-128.00;-1.00;-1.00;97909;294;1002919;-35
2023/06/07 01:57:34;;;;;;;6.40;5.40;;;;;;;-128.00;-1.00;-1.00;97987;294;1003146;-34
2023/06/07 02:00:17;;;;;;;8.00;4.90;;;;;;;-128.00;-1.00;-1.00;98131;293;1003123;-30
2023/06/07 02:02:58;;;;;;;6.10;5.10;;;;;;;-128.00;-1.00;-1.00;97954;294;1002910;-31
2023/06/07 02:05:37;;;;;;;5.80;4.60;;;;;;;-128.00;-1.00;-1.00;98101;293;1003309;-35
2023/06/07 02:08:09;;;;;;;40.90;11.70;;;;;;;-128.00;-1.00;-1.00;97957;293;1002326;-31
2023/06/07 02:10:36;;;;;;;7.80;6.60;;;;;;;-128.00;-1.00;-1.00;97864;293;1003353;-35
2023/06/07 02:13:01;;;;;;;12.10;7.80;;;;;;;-128.00;-1.00;-1.00;97960;293;1003513;-30
2023/06/07 02:15:27;;;;;;;14.10;12.30;;;;;;;-128.00;-1.00;-1.00;97896;294;1003389;-34
2023/06/07 02:17:57;;;;;;;24.60;20.40;;;;;;;-128.00;-1.00;-1.00;97902;294;1003147;-30
2023/06/07 02:20:25;;;;;;;19.10;10.10;;;;;;;-128.00;-1.00;-1.00;98031;294;1002180;-33
2023/06/07 02:22:51;;;;;;;40.60;33.60;;;;;;;-128.00;-1.00;-1.00;98148;294;1003222;-34
2023/06/07 02:25:17;;;;;;;11.30;10.20;;;;;;;-128.00;-1.00;-1.00;98088;294;1002973;-35
2023/06/07 02:27:43;;;;;;;15.30;9.80;;;;;;;-128.00;-1.00;-1.00;97984;294;1004114;-29
2023/06/07 02:30:09;;;;;;;9.60;7.60;;;;;;;-128.00;-1.00;-1.00;98073;294;1003038;-34
2023/06/07 02:32:35;;;;;;;10.20;8.20;;;;;;;-128.00;-1.00;-1.00;98001;294;1004574;-34
2023/06/07 02:35:01;;;;;;;8.10;6.30;;;;;;;-128.00;-1.00;-1.00;98127;294;1003402;-34
2023/06/07 02:37:28;;;;;;;8.20;5.80;;;;;;;-128.00;-1.00;-1.00;97947;295;1002965;-31
2023/06/07 02:39:53;;;;;;;6.50;5.20;;;;;;;-128.00;-1.00;-1.00;98175;294;1003362;-31
2023/06/07 02:42:19;;;;;;;8.60;5.90;;;;;;;-128.00;-1.00;-1.00;98045;283;1003608;-31
2023/06/07 02:44:45;;;;;;;5.40;4.30;;;;;;;-128.00;-1.00;-1.00;98004;294;1004912;-35
2023/06/07 02:47:10;;;;;;;6.60;5.30;;;;;;;-128.00;-1.00;-1.00;97952;294;1002600;-35
2023/06/07 02:49:36;;;;;;;11.90;6.50;;;;;;;-128.00;-1.00;-1.00;97993;293;1003360;-31
2023/06/07 02:52:02;;;;;;;7.20;6.00;;;;;;;-128.00;-1.00;-1.00;98041;318;1004324;-34
2023/06/07 02:54:28;;;;;;;9.80;8.50;;;;;;;-128.00;-1.00;-1.00;98168;294;1004335;-35
2023/06/07 02:56:53;;;;;;;15.70;9.50;;;;;;;-128.00;-1.00;-1.00;97937;294;1002782;-36
2023/06/07 02:59:19;;;;;;;11.80;8.30;;;;;;;-128.00;-1.00;-1.00;98007;294;1002909;-33
2023/06/07 03:01:46;;;;;;;13.90;8.80;;;;;;;-128.00;-1.00;-1.00;98031;294;1003235;-34
2023/06/07 03:04:11;;;;;;;13.70;8.50;;;;;;;-128.00;-1.00;-1.00;98024;294;1004441;-33
2023/06/07 03:06:41;;;;;;;10.00;9.10;;;;;;;-128.00;-1.00;-1.00;98010;294;1003159;-34
2023/06/07 03:09:06;;;;;;;9.20;7.40;;;;;;;-128.00;-1.00;-1.00;97961;294;1003248;-28
2023/06/07 03:11:33;;;;;;;13.50;9.80;;;;;;;-128.00;-1.00;-1.00;98036;294;1003141;-34
2023/06/07 03:13:58;;;;;;;9.50;8.40;;;;;;;-128.00;-1.00;-1.00;97946;294;1003539;-34
2023/06/07 03:16:24;;;;;;;8.90;7.40;;;;;;;-128.00;-1.00;-1.00;98035;295;1003216;-30
2023/06/07 03:18:50;;;;;;;9.30;8.40;;;;;;;-128.00;-1.00;-1.00;98065;294;1004885;-35
2023/06/07 03:21:15;;;;;;;9.80;8.80;;;;;;;-128.00;-1.00;-1.00;98023;283;1002945;-30
2023/06/07 03:23:41;;;;;;;11.30;9.30;;;;;;;-128.00;-1.00;-1.00;98022;294;1004009;-34
2023/06/07 03:26:09;;;;;;;16.40;12.00;;;;;;;-128.00;-1.00;-1.00;97966;293;1004700;-34
2023/06/07 03:28:35;;;;;;;39.60;34.60;;;;;;;-128.00;-1.00;-1.00;97991;293;1003031;-30
2023/06/07 03:31:01;;;;;;;21.40;19.10;;;;;;;-128.00;-1.00;-1.00;98004;294;1004296;-32
2023/06/07 03:33:27;;;;;;;17.00;15.10;;;;;;;-128.00;-1.00;-1.00;98001;294;1003293;-38
2023/06/07 03:35:52;;;;;;;8.80;8.00;;;;;;;-128.00;-1.00;-1.00;97906;295;1003514;-35
2023/06/07 03:38:18;;;;;;;10.80;6.40;;;;;;;-128.00;-1.00;-1.00;98055;293;1003979;-34
2023/06/07 03:40:43;;;;;;;6.70;6.00;;;;;;;-128.00;-1.00;-1.00;98057;294;1002768;-31
2023/06/07 03:43:09;;;;;;;7.70;6.00;;;;;;;-128.00;-1.00;-1.00;97984;294;1003018;-35
2023/06/07 03:45:35;;;;;;;6.00;5.30;;;;;;;-128.00;-1.00;-1.00;97893;294;1003162;-35
2023/06/07 03:48:01;;;;;;;6.90;4.70;;;;;;;-128.00;-1.00;-1.00;97937;294;1005170;-34
2023/06/07 03:50:26;;;;;;;9.20;6.70;;;;;;;-128.00;-1.00;-1.00;98081;294;1004117;-34
2023/06/07 03:52:52;;;;;;;10.40;7.40;;;;;;;-128.00;-1.00;-1.00;97879;294;1003186;-30
2023/06/07 03:55:19;;;;;;;8.20;7.50;;;;;;;-128.00;-1.00;-1.00;97960;294;1003050;-34
2023/06/07 03:57:47;;;;;;;9.70;7.90;;;;;;;-128.00;-1.00;-1.00;98075;293;1003588;-29
2023/06/07 04:00:15;;;;;;;9.30;6.50;;;;;;;-128.00;-1.00;-1.00;97927;294;1003006;-33
2023/06/07 04:02:44;;;;;;;8.60;6.40;;;;;;;-128.00;-1.00;-1.00;98028;294;1003513;-31
2023/06/07 04:05:10;;;;;;;8.80;6.50;;;;;;;-128.00;-1.00;-1.00;98159;294;1003585;-30
2023/06/07 04:07:35;;;;;;;8.40;7.20;;;;;;;-128.00;-1.00;-1.00;98058;294;1003261;-34
2023/06/07 04:10:01;;;;;;;5.30;4.00;;;;;;;-128.00;-1.00;-1.00;97994;294;1003693;-30
2023/06/07 04:12:26;;;;;;;8.90;6.80;;;;;;;-128.00;-1.00;-1.00;97855;294;1003811;-39
2023/06/07 04:14:52;;;;;;;8.50;6.80;;;;;;;-128.00;-1.00;-1.00;98049;293;1003336;-31
2023/06/07 04:17:18;;;;;;;7.90;6.50;;;;;;;-128.00;-1.00;-1.00;97999;294;1004555;-37
2023/06/07 04:19:44;;;;;;;7.90;7.00;;;;;;;-128.00;-1.00;-1.00;97960;294;1004518;-36
2023/06/07 04:22:09;;;;;;;12.00;8.20;;;;;;;-128.00;-1.00;-1.00;97885;294;1003453;-34
2023/06/07 04:24:35;;;;;;;16.80;9.30;;;;;;;-128.00;-1.00;-1.00;97980;295;1003954;-30
2023/06/07 04:27:01;;;;;;;9.20;8.30;;;;;;;-128.00;-1.00;-1.00;97926;294;1003734;-29
2023/06/07 04:29:27;;;;;;;12.30;7.20;;;;;;;-128.00;-1.00;-1.00;97858;282;1003300;-31
2023/06/07 04:31:56;;;;;;;6.90;6.20;;;;;;;-128.00;-1.00;-1.00;97985;294;1003471;-33
2023/06/07 04:34:25;;;;;;;7.70;6.20;;;;;;;-128.00;-1.00;-1.00;97982;294;1004104;-32
2023/06/07 04:36:52;;;;;;;10.60;6.80;;;;;;;-128.00;-1.00;-1.00;97866;282;1004265;-32
2023/06/07 04:39:18;;;;;;;7.40;6.10;;;;;;;-128.00;-1.00;-1.00;97924;294;1003327;-34
2023/06/07 04:41:45;;;;;;;10.60;7.50;;;;;;;-128.00;-1.00;-1.00;97957;294;1002983;-34
2023/06/07 04:44:11;;;;;;;10.80;6.70;;;;;;;-128.00;-1.00;-1.00;98082;294;1004188;-34
2023/06/07 04:46:39;;;;;;;11.30;7.70;;;;;;;-128.00;-1.00;-1.00;97942;294;1002805;-33
2023/06/07 04:49:06;;;;;;;12.20;6.90;;;;;;;-128.00;-1.00;-1.00;97957;282;1004750;-36
2023/06/07 04:51:32;;;;;;;8.50;7.00;;;;;;;-128.00;-1.00;-1.00;97815;294;1003223;-33
2023/06/07 04:54:00;;;;;;;7.30;6.40;;;;;;;-128.00;-1.00;-1.00;98112;294;1004380;-35
2023/06/07 04:56:30;;;;;;;7.10;5.00;;;;;;;-128.00;-1.00;-1.00;97928;283;1003706;-31
2023/06/07 04:58:56;;;;;;;7.70;5.60;;;;;;;-128.00;-1.00;-1.00;97932;295;1003603;-34
2023/06/07 05:01:22;;;;;;;9.50;7.10;;;;;;;-128.00;-1.00;-1.00;97994;294;1003606;-32
2023/06/07 05:03:49;;;;;;;7.90;6.70;;;;;;;-128.00;-1.00;-1.00;97836;296;1004046;-36
2023/06/07 05:06:18;;;;;;;14.30;12.00;;;;;;;-128.00;-1.00;-1.00;97874;294;1003646;-34
2023/06/07 05:08:44;;;;;;;9.80;8.40;;;;;;;-128.00;-1.00;-1.00;97932;294;1004626;-30
2023/06/07 05:11:10;;;;;;;11.50;8.00;;;;;;;-128.00;-1.00;-1.00;97862;294;1003053;-34
2023/06/07 05:13:36;;;;;;;9.00;7.40;;;;;;;-128.00;-1.00;-1.00;97930;282;1003214;-37
2023/06/07 05:16:02;;;;;;;8.70;7.80;;;;;;;-128.00;-1.00;-1.00;97858;295;1003872;-32
2023/06/07 05:18:28;;;;;;;17.30;7.30;;;;;;;-128.00;-1.00;-1.00;97991;294;1003718;-34
2023/06/07 05:20:53;;;;;;;6.80;6.20;;;;;;;-128.00;-1.00;-1.00;97996;286;1004339;-31
2023/06/07 05:23:19;;;;;;;13.80;6.90;;;;;;;-128.00;-1.00;-1.00;97884;294;1002929;-31
2023/06/07 05:25:45;;;;;;;21.20;6.90;;;;;;;-128.00;-1.00;-1.00;97825;295;1003926;-37
2023/06/07 05:28:11;;;;;;;14.40;9.60;;;;;;;-128.00;-1.00;-1.00;97930;295;1003150;-32
2023/06/07 05:30:37;;;;;;;15.90;11.80;;;;;;;-128.00;-1.00;-1.00;97840;294;1003257;-30
2023/06/07 05:33:04;;;;;;;18.40;13.20;;;;;;;-128.00;-1.00;-1.00;98027;294;1003193;-34
2023/06/07 05:35:29;;;;;;;9.40;8.50;;;;;;;-128.00;-1.00;-1.00;98019;294;1005267;-35
2023/06/07 05:37:55;;;;;;;10.50;7.70;;;;;;;-128.00;-1.00;-1.00;98045;294;1003554;-31
2023/06/07 05:40:21;;;;;;;7.70;6.50;;;;;;;-128.00;-1.00;-1.00;98015;294;1004598;-35
2023/06/07 05:42:49;;;;;;;8.00;7.10;;;;;;;-128.00;-1.00;-1.00;97871;294;1005264;-33
2023/06/07 05:45:14;;;;;;;8.90;6.00;;;;;;;-128.00;-1.00;-1.00;97832;294;1003113;-36
2023/06/07 05:47:41;;;;;;;13.60;6.80;;;;;;;-128.00;-1.00;-1.00;97886;294;1003953;-30
2023/06/07 05:50:10;;;;;;;7.80;5.70;;;;;;;-128.00;-1.00;-1.00;97965;294;1003155;-31
2023/06/07 05:52:36;;;;;;;6.70;5.90;;;;;;;-128.00;-1.00;-1.00;98210;294;1003023;-32
2023/06/07 05:55:02;;;;;;;7.30;6.60;;;;;;;-128.00;-1.00;-1.00;97886;294;1003280;-36
2023/06/07 05:57:27;;;;;;;9.50;4.90;;;;;;;-128.00;-1.00;-1.00;98051;294;1005096;-35
2023/06/07 05:59:53;;;;;;;8.60;6.30;;;;;;;-128.00;-1.00;-1.00;97948;294;1003727;-32
2023/06/07 06:02:20;;;;;;;6.10;5.40;;;;;;;-128.00;-1.00;-1.00;97955;294;1003665;-32
2023/06/07 06:04:47;;;;;;;5.40;4.90;;;;;;;-128.00;-1.00;-1.00;97882;294;1003178;-31
2023/06/07 06:07:12;;;;;;;6.20;5.00;;;;;;;-128.00;-1.00;-1.00;97888;294;1005681;-37
2023/06/07 06:09:38;;;;;;;6.30;4.70;;;;;;;-128.00;-1.00;-1.00;98072;294;1005389;-35
2023/06/07 06:12:06;;;;;;;7.10;5.70;;;;;;;-128.00;-1.00;-1.00;97947;294;1004827;-35
2023/06/07 06:14:32;;;;;;;7.90;5.70;;;;;;;-128.00;-1.00;-1.00;98018;294;1003508;-36
2023/06/07 06:16:58;;;;;;;7.50;5.90;;;;;;;-128.00;-1.00;-1.00;98011;294;1005048;-33
2023/06/07 06:19:25;;;;;;;4.60;4.00;;;;;;;-128.00;-1.00;-1.00;97900;294;1004130;-35
2023/06/07 06:21:50;;;;;;;4.60;4.20;;;;;;;-128.00;-1.00;-1.00;97949;293;1003359;-36
2023/06/07 06:24:16;;;;;;;7.10;4.60;;;;;;;-128.00;-1.00;-1.00;98011;293;1003219;-32
2023/06/07 06:26:42;;;;;;;4.00;2.70;;;;;;;-128.00;-1.00;-1.00;97953;282;1003597;-30
2023/06/07 06:29:10;;;;;;;6.10;3.00;;;;;;;-128.00;-1.00;-1.00;97986;294;1003012;-35
2023/06/07 06:31:35;;;;;;;3.80;3.30;;;;;;;-128.00;-1.00;-1.00;98063;294;1005166;-38
2023/06/07 06:34:01;;;;;;;3.90;3.60;;;;;;;-128.00;-1.00;-1.00;97930;295;1003806;-31
2023/06/07 06:36:26;;;;;;;6.40;3.50;;;;;;;-128.00;-1.00;-1.00;97886;282;1003382;-35
2023/06/07 06:38:52;;;;;;;3.30;2.40;;;;;;;-128.00;-1.00;-1.00;97774;295;1003758;-35
2023/06/07 06:41:18;;;;;;;4.20;3.20;;;;;;;-128.00;-1.00;-1.00;97900;294;1002996;-31
2023/06/07 06:43:44;;;;;;;4.50;2.90;;;;;;;-128.00;-1.00;-1.00;97929;294;1003352;-35
2023/06/07 06:46:10;;;;;;;5.80;3.70;;;;;;;-128.00;-1.00;-1.00;97963;295;1003049;-31
2023/06/07 06:48:38;;;;;;;7.10;2.90;;;;;;;-128.00;-1.00;-1.00;97970;294;1003083;-35
2023/06/07 06:51:04;;;;;;;3.80;3.50;;;;;;;-128.00;-1.00;-1.00;97894;294;1003495;-37
2023/06/07 06:53:30;;;;;;;3.80;2.70;;;;;;;-128.00;-1.00;-1.00;97920;294;1003207;-31
2023/06/07 06:55:55;;;;;;;4.50;2.50;;;;;;;-128.00;-1.00;-1.00;97876;293;1004410;-35
2023/06/07 06:58:22;;;;;;;8.60;3.40;;;;;;;-128.00;-1.00;-1.00;97877;294;1003445;-35
2023/06/07 07:00:48;;;;;;;3.80;2.70;;;;;;;-128.00;-1.00;-1.00;97896;294;1003079;-37
2023/06/07 07:03:13;;;;;;;2.90;2.60;;;;;;;-128.00;-1.00;-1.00;97942;294;1002921;-29
2023/06/07 07:05:39;;;;;;;3.90;3.10;;;;;;;-128.00;-1.00;-1.00;98052;294;1003113;-35
2023/06/07 07:08:06;;;;;;;6.40;3.00;;;;;;;-128.00;-1.00;-1.00;97872;293;1004360;-35
2023/06/07 07:10:32;;;;;;;3.30;2.70;;;;;;;-128.00;-1.00;-1.00;97974;294;1003225;-32
2023/06/07 07:12:58;;;;;;;4.70;2.80;;;;;;;-128.00;-1.00;-1.00;97919;294;1002897;-32
2023/06/07 07:15:24;;;;;;;3.20;2.80;;;;;;;-128.00;-1.00;-1.00;97953;294;1002637;-35
2023/06/07 07:17:50;;;;;;;3.00;2.60;;;;;;;-128.00;-1.00;-1.00;98040;293;1003053;-36
2023/06/07 07:20:17;;;;;;;3.60;3.00;;;;;;;-128.00;-1.00;-1.00;97914;294;1003152;-34
2023/06/07 07:22:44;;;;;;;4.70;3.50;;;;;;;-128.00;-1.00;-1.00;97924;294;1003798;-37
2023/06/07 07:25:10;;;;;;;2.60;2.30;;;;;;;-128.00;-1.00;-1.00;97884;294;1003683;-32
2023/06/07 07:27:36;;;;;;;3.10;2.40;;;;;;;-128.00;-1.00;-1.00;97874;293;1002289;-32
2023/06/07 07:30:04;;;;;;;10.20;3.10;;;;;;;-128.00;-1.00;-1.00;97855;294;1004500;-32
2023/06/07 07:32:32;;;;;;;4.30;2.90;;;;;;;-128.00;-1.00;-1.00;97902;295;1003228;-36
2023/06/07 07:34:58;;;;;;;4.80;3.40;;;;;;;-128.00;-1.00;-1.00;97989;294;1013764;-33
2023/06/07 07:37:25;;;;;;;4.20;3.80;;;;;;;-128.00;-1.00;-1.00;97915;294;1002338;-32
2023/06/07 07:39:51;;;;;;;5.20;2.90;;;;;;;-128.00;-1.00;-1.00;98040;294;1004634;-31
2023/06/07 07:42:17;;;;;;;2.90;2.60;;;;;;;-128.00;-1.00;-1.00;98177;294;1004014;-37
2023/06/07 07:44:42;;;;;;;3.20;2.80;;;;;;;-128.00;-1.00;-1.00;97832;294;1003094;-32
2023/06/07 07:47:08;;;;;;;2.50;2.10;;;;;;;-128.00;-1.00;-1.00;97866;294;1004763;-36
2023/06/07 07:49:34;;;;;;;4.10;2.80;;;;;;;-128.00;-1.00;-1.00;98005;293;1002971;-33
2023/06/07 07:52:00;;;;;;;5.20;3.00;;;;;;;-128.00;-1.00;-1.00;98052;294;1003509;-33
2023/06/07 07:54:26;;;;;;;4.90;3.40;;;;;;;-128.00;-1.00;-1.00;97893;294;1003478;-36
2023/06/07 07:56:51;;;;;;;3.80;3.00;;;;;;;-128.00;-1.00;-1.00;98039;294;1005088;-37
2023/06/07 07:59:17;;;;;;;4.60;3.50;;;;;;;-128.00;-1.00;-1.00;98009;293;1003627;-31
2023/06/07 08:01:45;;;;;;;4.70;3.10;;;;;;;-128.00;-1.00;-1.00;97959;294;1002926;-33
2023/06/07 08:04:11;;;;;;;2.50;2.00;;;;;;;-128.00;-1.00;-1.00;97917;294;1003125;-31
2023/06/07 08:06:38;;;;;;;2.50;2.10;;;;;;;-128.00;-1.00;-1.00;97892;294;1003387;-31
2023/06/07 08:09:05;;;;;;;11.00;2.50;;;;;;;-128.00;-1.00;-1.00;97958;294;1003116;-31
2023/06/07 08:11:31;;;;;;;3.40;2.60;;;;;;;-128.00;-1.00;-1.00;98086;294;1003599;-35
2023/06/07 08:13:57;;;;;;;3.60;2.20;;;;;;;-128.00;-1.00;-1.00;98078;293;1003129;-35
2023/06/07 08:16:23;;;;;;;5.00;1.90;;;;;;;-128.00;-1.00;-1.00;97913;294;1005000;-35
2023/06/07 08:18:56;;;;;;;2.50;2.30;;;;;;;-128.00;-1.00;-1.00;97872;294;1003351;-36
2023/06/07 08:21:22;;;;;;;2.30;2.10;;;;;;;-128.00;-1.00;-1.00;98034;293;1002682;-37
2023/06/07 08:23:48;;;;;;;3.10;2.30;;;;;;;-128.00;-1.00;-1.00;98057;294;1003511;-35
2023/06/07 08:26:17;;;;;;;2.30;2.00;;;;;;;-128.00;-1.00;-1.00;97879;294;1003273;-35
2023/06/07 08:28:43;;;;;;;3.80;2.80;;;;;;;-128.00;-1.00;-1.00;97851;294;1003786;-35
2023/06/07 08:31:10;;;;;;;5.80;2.80;;;;;;;-128.00;-1.00;-1.00;97875;294;1002934;-33
2023/06/07 08:33:36;;;;;;;2.20;1.80;;;;;;;-128.00;-1.00;-1.00;98012;294;1003187;-37
2023/06/07 08:36:02;;;;;;;4.20;2.00;;;;;;;-128.00;-1.00;-1.00;97912;293;1004232;-33
2023/06/07 08:38:28;;;;;;;10.20;2.00;;;;;;;-128.00;-1.00;-1.00;97913;294;1003326;-36
2023/06/07 08:40:55;;;;;;;2.70;2.30;;;;;;;-128.00;-1.00;-1.00;97864;294;1003560;-36
2023/06/07 08:43:21;;;;;;;2.50;1.50;;;;;;;-128.00;-1.00;-1.00;97883;294;1002821;-36
2023/06/07 08:45:50;;;;;;;2.40;2.10;;;;;;;-128.00;-1.00;-1.00;98031;294;1003276;-34
2023/06/07 08:48:16;;;;;;;4.60;1.80;;;;;;;-128.00;-1.00;-1.00;97871;294;1003681;-32
2023/06/07 08:50:44;;;;;;;2.70;1.90;;;;;;;-128.00;-1.00;-1.00;97970;295;1003979;-32
2023/06/07 08:53:13;;;;;;;4.10;1.90;;;;;;;-128.00;-1.00;-1.00;97958;294;1004148;-33
2023/06/07 08:55:38;;;;;;;3.10;2.30;;;;;;;-128.00;-1.00;-1.00;97869;287;1002460;-36
2023/06/07 08:58:06;;;;;;;4.40;3.10;;;;;;;-128.00;-1.00;-1.00;98007;294;1003477;-33
2023/06/07 09:00:32;;;;;;;4.60;1.40;;;;;;;-128.00;-1.00;-1.00;97951;294;1002898;-33
2023/06/07 09:02:58;;;;;;;2.40;2.00;;;;;;;-128.00;-1.00;-1.00;98115;294;1002827;-33
2023/06/07 09:05:24;;;;;;;2.70;2.00;;;;;;;-128.00;-1.00;-1.00;97951;294;1003730;-36
2023/06/07 09:07:49;;;;;;;2.90;2.40;;;;;;;-128.00;-1.00;-1.00;97938;294;1003489;-36
2023/06/07 09:10:17;;;;;;;3.00;1.80;;;;;;;-128.00;-1.00;-1.00;97918;294;1002363;-32
2023/06/07 09:12:45;;;;;;;3.10;2.20;;;;;;;-128.00;-1.00;-1.00;97935;294;1003104;-35
2023/06/07 09:15:17;;;;;;;2.30;1.80;;;;;;;-128.00;-1.00;-1.00;97513;294;1003063;-38
2023/06/07 09:17:56;;;;;;;3.00;2.40;;;;;;;-128.00;-1.00;-1.00;97910;294;1002986;-33
2023/06/07 09:20:23;;;;;;;4.90;2.50;;;;;;;-128.00;-1.00;-1.00;98024;294;1003420;-31
2023/06/07 09:23:06;;;;;;;1.90;1.40;;;;;;;-128.00;-1.00;-1.00;97906;294;1003763;-36
2023/06/07 09:25:31;;;;;;;2.30;1.50;;;;;;;-128.00;-1.00;-1.00;98085;294;1003328;-35
2023/06/07 09:27:57;;;;;;;2.10;1.90;;;;;;;-128.00;-1.00;-1.00;97999;294;1003393;-38
2023/06/07 09:30:23;;;;;;;6.40;2.80;;;;;;;-128.00;-1.00;-1.00;98017;294;1003161;-32
2023/06/07 09:32:49;;;;;;;2.70;2.40;;;;;;;-128.00;-1.00;-1.00;98074;294;1003584;-31
2023/06/07 09:35:17;;;;;;;3.50;1.90;;;;;;;-128.00;-1.00;-1.00;98078;294;1002752;-31
2023/06/07 09:37:45;;;;;;;2.40;2.10;;;;;;;-128.00;-1.00;-1.00;97862;294;1003169;-32
2023/06/07 09:40:11;;;;;;;4.00;2.20;;;;;;;-128.00;-1.00;-1.00;97839;293;1003480;-35
2023/06/07 09:42:36;;;;;;;4.40;2.30;;;;;;;-128.00;-1.00;-1.00;97861;293;1003244;-31
2023/06/07 09:45:14;;;;;;;4.50;2.50;;;;;;;-128.00;-1.00;-1.00;97917;294;1004731;-35
2023/06/07 09:47:41;;;;;;;7.90;2.80;;;;;;;-128.00;-1.00;-1.00;97864;294;1002716;-35
2023/06/07 09:50:09;;;;;;;5.20;2.90;;;;;;;-128.00;-1.00;-1.00;97921;294;1003082;-31
2023/06/07 09:52:34;;;;;;;2.20;2.10;;;;;;;-128.00;-1.00;-1.00;97844;295;1003279;-37
2023/06/07 09:55:02;;;;;;;2.70;2.20;;;;;;;-128.00;-1.00;-1.00;97906;294;1004887;-38
2023/06/07 09:57:30;;;;;;;2.90;2.40;;;;;;;-128.00;-1.00;-1.00;97943;294;1003270;-32
2023/06/07 10:00:10;;;;;;;3.60;2.20;;;;;;;-128.00;-1.00;-1.00;97963;294;1002784;-31
2023/06/07 10:02:36;;;;;;;2.60;2.40;;;;;;;-128.00;-1.00;-1.00;97819;295;1003148;-33
2023/06/07 10:05:02;;;;;;;2.40;1.50;;;;;;;-128.00;-1.00;-1.00;97978;294;1003201;-30
2023/06/07 10:07:35;;;;;;;2.80;2.50;;;;;;;-128.00;-1.00;-1.00;97838;294;1003259;-30
2023/06/07 10:10:01;;;;;;;3.10;2.80;;;;;;;-128.00;-1.00;-1.00;97901;294;1002748;-36
2023/06/07 10:12:28;;;;;;;4.40;2.20;;;;;;;-128.00;-1.00;-1.00;97926;294;1003063;-32
2023/06/07 10:14:54;;;;;;;3.30;2.30;;;;;;;-128.00;-1.00;-1.00;97855;283;1002948;-35
2023/06/07 10:17:22;;;;;;;5.70;1.90;;;;;;;-128.00;-1.00;-1.00;97994;294;1002836;-32
2023/06/07 10:19:51;;;;;;;3.20;2.20;;;;;;;-128.00;-1.00;-1.00;97905;294;1004558;-31
2023/06/07 10:22:20;;;;;;;5.00;2.60;;;;;;;-128.00;-1.00;-1.00;98026;294;1003600;-31
2023/06/07 10:25:08;;;;;;;3.60;2.80;;;;;;;-128.00;-1.00;-1.00;98041;294;1003244;-36
2023/06/07 10:27:42;;;;;;;8.40;3.40;;;;;;;-128.00;-1.00;-1.00;97921;294;1003558;-37
2023/06/07 10:30:12;;;;;;;2.30;2.10;;;;;;;-128.00;-1.00;-1.00;97904;294;1002917;-32
2023/06/07 10:32:39;;;;;;;2.80;2.30;;;;;;;-128.00;-1.00;-1.00;97995;293;1003736;-32
2023/06/07 10:35:10;;;;;;;2.70;2.30;;;;;;;-128.00;-1.00;-1.00;97872;294;1003572;-36
2023/06/07 10:37:36;;;;;;;16.70;8.60;;;;;;;-128.00;-1.00;-1.00;97985;294;1003500;-32
2023/06/07 10:40:10;;;;;;;7.50;2.70;;;;;;;-128.00;-1.00;-1.00;97890;294;1005554;-35
2023/06/07 10:42:37;;;;;;;3.90;3.10;;;;;;;-128.00;-1.00;-1.00;97956;283;1003823;-33
2023/06/07 10:45:04;;;;;;;3.40;2.60;;;;;;;-128.00;-1.00;-1.00;97885;294;1003371;-33
2023/06/07 10:47:30;;;;;;;2.20;2.00;;;;;;;-128.00;-1.00;-1.00;97869;294;1003846;-31
2023/06/07 10:49:56;;;;;;;3.60;2.60;;;;;;;-128.00;-1.00;-1.00;97947;294;1003731;-34
2023/06/07 10:52:23;;;;;;;8.10;3.70;;;;;;;-128.00;-1.00;-1.00;97922;294;1004099;-35
2023/06/07 10:54:49;;;;;;;3.50;2.60;;;;;;;-128.00;-1.00;-1.00;97828;283;1002969;-35
2023/06/07 10:57:15;;;;;;;3.80;2.40;;;;;;;-128.00;-1.00;-1.00;97994;294;1003122;-31
2023/06/07 10:59:41;;;;;;;4.50;3.20;;;;;;;-128.00;-1.00;-1.00;97891;294;1004109;-31
2023/06/07 11:02:14;;;;;;;2.60;2.10;;;;;;;-128.00;-1.00;-1.00;97938;294;1003882;-36
2023/06/07 11:04:57;;;;;;;3.30;2.80;;;;;;;-128.00;-1.00;-1.00;98041;294;1003876;-36
2023/06/07 11:07:30;;;;;;;8.30;2.50;;;;;;;-128.00;-1.00;-1.00;97985;294;1003081;-35
2023/06/07 11:10:32;;;;;;;6.20;2.40;;;;;;;-128.00;-1.00;-1.00;98015;294;1003258;-31
2023/06/07 11:12:58;;;;;;;18.80;2.50;;;;;;;-128.00;-1.00;-1.00;97899;294;1004737;-32
2023/06/07 11:15:27;;;;;;;6.60;2.80;;;;;;;-128.00;-1.00;-1.00;97898;294;1002676;-31
2023/06/07 11:18:01;;;;;;;4.30;2.50;;;;;;;-128.00;-1.00;-1.00;97935;294;1004070;-34
2023/06/07 11:20:48;;;;;;;5.10;2.20;;;;;;;-128.00;-1.00;-1.00;97946;294;1003419;-37
2023/06/07 11:23:30;;;;;;;2.90;2.00;;;;;;;-128.00;-1.00;-1.00;97856;294;1003047;-33
2023/06/07 11:26:11;;;;;;;4.90;2.60;;;;;;;-128.00;-1.00;-1.00;97853;294;1003491;-37
2023/06/07 11:28:37;;;;;;;3.60;2.40;;;;;;;-128.00;-1.00;-1.00;98033;282;1003639;-31
2023/06/07 11:31:04;;;;;;;3.40;2.70;;;;;;;-128.00;-1.00;-1.00;98104;294;1003298;-35
2023/06/07 11:33:30;;;;;;;3.60;2.20;;;;;;;-128.00;-1.00;-1.00;98012;294;1002813;-32
2023/06/07 11:35:56;;;;;;;5.00;2.00;;;;;;;-128.00;-1.00;-1.00;98016;294;1003361;-37
2023/06/07 11:38:22;;;;;;;3.00;1.60;;;;;;;-128.00;-1.00;-1.00;97931;294;1003158;-32
2023/06/07 11:40:48;;;;;;;3.50;2.40;;;;;;;-128.00;-1.00;-1.00;97942;294;1004119;-36
2023/06/07 11:43:17;;;;;;;5.10;3.60;;;;;;;-128.00;-1.00;-1.00;97895;294;1002958;-36
2023/06/07 11:45:43;;;;;;;9.30;3.90;;;;;;;-128.00;-1.00;-1.00;97972;294;1003454;-36
2023/06/07 11:48:09;;;;;;;6.70;2.50;;;;;;;-128.00;-1.00;-1.00;97956;294;1003136;-36
2023/06/07 11:50:36;;;;;;;3.20;2.50;;;;;;;-128.00;-1.00;-1.00;97921;294;1003607;-33
2023/06/07 11:53:02;;;;;;;6.10;2.90;;;;;;;-128.00;-1.00;-1.00;97940;294;1003647;-37
2023/06/07 11:55:27;;;;;;;3.20;2.60;;;;;;;-128.00;-1.00;-1.00;97921;294;1003112;-34
2023/06/07 11:57:53;;;;;;;5.10;3.40;;;;;;;-128.00;-1.00;-1.00;98006;293;1003195;-32
2023/06/07 12:00:21;;;;;;;5.90;2.50;;;;;;;-128.00;-1.00;-1.00;97970;294;1003250;-31
2023/06/07 12:02:47;;;;;;;5.90;2.60;;;;;;;-128.00;-1.00;-1.00;98037;294;1004428;-37
2023/06/07 12:05:14;;;;;;;7.20;3.00;;;;;;;-128.00;-1.00;-1.00;97809;294;1002489;-34
2023/06/07 12:07:40;;;;;;;7.20;2.00;;;;;;;-128.00;-1.00;-1.00;97982;294;1004454;-37
2023/06/07 12:10:07;;;;;;;4.50;2.20;;;;;;;-128.00;-1.00;-1.00;98001;294;1003683;-32
2023/06/07 12:12:34;;;;;;;5.10;1.70;;;;;;;-128.00;-1.00;-1.00;97926;293;1003126;-36